KCBK/CBK METAR and TAF weather

Enter ICAO airport designator
Station Type Date Time Source
KCBK METAR 2019/10/16 19:15 UTC NOAA

KCBK 161915Z AUTO 19008KT 10SM CLR 20/M03 A3008 RMK AO2 PWINO


Station Type Date Time Source
KCBK Decoded METAR 2019/10/16 19:15 UTC NOAA

Station name not available
Oct 16, 2019 - 03:15 PM EDT / 2019.10.16 1915 UTC
Wind: from the S (190 degrees) at 9 MPH (8 KT):0
Visibility: 10 mile(s):0
Sky conditions: clear
Temperature: 68 F (20 C)
Dew Point: 26 F (-3 C)
Relative Humidity: 20%
Pressure (altimeter): 30.08 in. Hg (1018 hPa)
ob: KCBK 161915Z AUTO 19008KT 10SM CLR 20/M03 A3008 RMK AO2 PWINO
cycle: 19

Station Type Date Time Source
KCBK TAF UTC NOAA

Error!

Example: see airport list